sensor_id;sensor_type;location;lat;lon;timestamp;pressure;altitude;pressure_sealevel;temperature;humidity
40872;BME280;26591;43.264;26.940;2022-08-07T00:00:58;98585.31;;;25.52;58.08
40872;BME280;26591;43.264;26.940;2022-08-07T00:03:24;98576.66;;;25.50;57.48
40872;BME280;26591;43.264;26.940;2022-08-07T00:05:51;98580.44;;;25.49;57.42
40872;BME280;26591;43.264;26.940;2022-08-07T00:08:18;98579.09;;;25.41;57.75
40872;BME280;26591;43.264;26.940;2022-08-07T00:10:44;98576.94;;;25.43;58.63
40872;BME280;26591;43.264;26.940;2022-08-07T00:13:09;98579.13;;;25.25;58.84
40872;BME280;26591;43.264;26.940;2022-08-07T00:15:36;98581.28;;;25.49;57.81
40872;BME280;26591;43.264;26.940;2022-08-07T00:18:02;98581.00;;;25.30;59.24
40872;BME280;26591;43.264;26.940;2022-08-07T00:20:28;98587.50;;;25.39;58.83
40872;BME280;26591;43.264;26.940;2022-08-07T00:22:54;98582.91;;;25.45;58.82
40872;BME280;26591;43.264;26.940;2022-08-07T00:25:19;98584.53;;;25.36;59.04
40872;BME280;26591;43.264;26.940;2022-08-07T00:27:45;98584.78;;;25.39;58.45
40872;BME280;26591;43.264;26.940;2022-08-07T00:30:11;98579.66;;;25.22;58.69
40872;BME280;26591;43.264;26.940;2022-08-07T00:32:37;98584.03;;;25.13;59.15
40872;BME280;26591;43.264;26.940;2022-08-07T00:35:03;98585.66;;;25.04;59.12
40872;BME280;26591;43.264;26.940;2022-08-07T00:37:28;98580.22;;;25.14;59.47
40872;BME280;26591;43.264;26.940;2022-08-07T00:39:54;98579.69;;;25.12;59.14
40872;BME280;26591;43.264;26.940;2022-08-07T00:42:20;98582.66;;;25.16;59.52
40872;BME280;26591;43.264;26.940;2022-08-07T00:44:45;98586.72;;;25.13;59.13
40872;BME280;26591;43.264;26.940;2022-08-07T00:47:11;98584.84;;;25.08;59.00
40872;BME280;26591;43.264;26.940;2022-08-07T00:49:37;98585.94;;;25.02;60.00
40872;BME280;26591;43.264;26.940;2022-08-07T00:52:07;98588.38;;;25.04;60.23
40872;BME280;26591;43.264;26.940;2022-08-07T00:54:34;98584.84;;;25.08;59.24
40872;BME280;26591;43.264;26.940;2022-08-07T00:57:00;98594.06;;;24.92;59.95
40872;BME280;26591;43.264;26.940;2022-08-07T00:59:25;98597.31;;;24.83;60.37
40872;BME280;26591;43.264;26.940;2022-08-07T01:01:51;98591.63;;;24.80;59.97
40872;BME280;26591;43.264;26.940;2022-08-07T01:04:18;98588.38;;;24.78;60.19
40872;BME280;26591;43.264;26.940;2022-08-07T01:06:44;98591.34;;;24.92;60.38
40872;BME280;26591;43.264;26.940;2022-08-07T01:09:10;98592.69;;;24.94;59.55
40872;BME280;26591;43.264;26.940;2022-08-07T01:11:37;98589.47;;;24.92;60.07
40872;BME280;26591;43.264;26.940;2022-08-07T01:14:03;98588.13;;;24.85;60.67
40872;BME280;26591;43.264;26.940;2022-08-07T01:16:29;98593.78;;;24.78;61.11
40872;BME280;26591;43.264;26.940;2022-08-07T01:18:56;98594.06;;;24.92;60.77
40872;BME280;26591;43.264;26.940;2022-08-07T01:21:22;98598.41;;;24.77;61.33
40872;BME280;26591;43.264;26.940;2022-08-07T01:23:50;98596.78;;;24.76;60.92
40872;BME280;26591;43.264;26.940;2022-08-07T01:26:18;98596.22;;;24.90;60.75
40872;BME280;26591;43.264;26.940;2022-08-07T01:28:48;98599.19;;;24.98;60.20
40872;BME280;26591;43.264;26.940;2022-08-07T01:31:18;98598.38;;;24.88;61.11
40872;BME280;26591;43.264;26.940;2022-08-07T01:33:46;98595.97;;;24.86;60.73
40872;BME280;26591;43.264;26.940;2022-08-07T01:36:12;98594.06;;;24.81;61.45
40872;BME280;26591;43.264;26.940;2022-08-07T01:38:38;98591.91;;;24.73;61.07
40872;BME280;26591;43.264;26.940;2022-08-07T01:41:05;98595.38;;;24.53;62.11
40872;BME280;26591;43.264;26.940;2022-08-07T01:43:33;98590.50;;;24.50;62.27
40872;BME280;26591;43.264;26.940;2022-08-07T01:46:01;98587.25;;;24.53;61.86
40872;BME280;26591;43.264;26.940;2022-08-07T01:48:27;98592.94;;;24.57;62.01
40872;BME280;26591;43.264;26.940;2022-08-07T01:51:01;98599.72;;;24.59;61.18
40872;BME280;26591;43.264;26.940;2022-08-07T01:53:28;98591.59;;;24.54;61.23
40872;BME280;26591;43.264;26.940;2022-08-07T01:56:01;98598.34;;;24.57;61.18
40872;BME280;26591;43.264;26.940;2022-08-07T01:58:31;98592.41;;;24.60;61.74
40872;BME280;26591;43.264;26.940;2022-08-07T02:01:02;98595.91;;;24.40;62.00
40872;BME280;26591;43.264;26.940;2022-08-07T02:03:28;98597.22;;;24.21;62.79
40872;BME280;26591;43.264;26.940;2022-08-07T02:06:02;98602.13;;;24.45;62.33
40872;BME280;26591;43.264;26.940;2022-08-07T02:08:32;98598.88;;;24.59;61.79
40872;BME280;26591;43.264;26.940;2022-08-07T02:11:02;98591.88;;;24.52;62.03
40872;BME280;26591;43.264;26.940;2022-08-07T02:13:30;98595.91;;;24.55;61.63
40872;BME280;26591;43.264;26.940;2022-08-07T02:15:57;98593.16;;;24.34;61.79
40872;BME280;26591;43.264;26.940;2022-08-07T02:18:27;98598.06;;;24.37;62.52
40872;BME280;26591;43.264;26.940;2022-08-07T02:20:55;98594.03;;;24.50;62.02
40872;BME280;26591;43.264;26.940;2022-08-07T02:23:22;98594.56;;;24.37;62.75
40872;BME280;26591;43.264;26.940;2022-08-07T02:25:51;98589.09;;;24.27;63.19
40872;BME280;26591;43.264;26.940;2022-08-07T02:28:19;98606.97;;;24.43;62.23
40872;BME280;26591;43.264;26.940;2022-08-07T02:30:45;98593.16;;;24.19;62.85
40872;BME280;26591;43.264;26.940;2022-08-07T02:33:13;98594.78;;;24.20;63.37
40872;BME280;26591;43.264;26.940;2022-08-07T02:35:40;98599.66;;;24.28;62.75
40872;BME280;26591;43.264;26.940;2022-08-07T02:38:07;98593.47;;;24.33;63.28
40872;BME280;26591;43.264;26.940;2022-08-07T02:40:34;98600.75;;;24.27;62.89
40872;BME280;26591;43.264;26.940;2022-08-07T02:43:04;98595.56;;;24.15;63.84
40872;BME280;26591;43.264;26.940;2022-08-07T02:45:30;98594.75;;;24.10;63.57
40872;BME280;26591;43.264;26.940;2022-08-07T02:47:57;98595.00;;;24.03;63.42
40872;BME280;26591;43.264;26.940;2022-08-07T02:50:23;98590.94;;;24.00;64.46
40872;BME280;26591;43.264;26.940;2022-08-07T02:52:55;98592.31;;;24.13;64.13
40872;BME280;26591;43.264;26.940;2022-08-07T02:55:25;98587.19;;;24.12;63.68
40872;BME280;26591;43.264;26.940;2022-08-07T02:57:52;98585.81;;;24.04;63.87
40872;BME280;26591;43.264;26.940;2022-08-07T03:00:18;98591.41;;;23.92;64.43
40872;BME280;26591;43.264;26.940;2022-08-07T03:02:46;98589.03;;;24.01;64.36
40872;BME280;26591;43.264;26.940;2022-08-07T03:05:13;98597.97;;;24.01;64.51
40872;BME280;26591;43.264;26.940;2022-08-07T03:07:41;98596.50;;;23.83;64.94
40872;BME280;26591;43.264;26.940;2022-08-07T03:10:08;98598.72;;;23.91;64.48
40872;BME280;26591;43.264;26.940;2022-08-07T03:12:35;98608.44;;;23.87;64.74
40872;BME280;26591;43.264;26.940;2022-08-07T03:15:03;98603.31;;;23.86;64.60
40872;BME280;26591;43.264;26.940;2022-08-07T03:17:29;98603.91;;;23.98;64.19
40872;BME280;26591;43.264;26.940;2022-08-07T03:19:56;98604.47;;;24.05;64.28
40872;BME280;26591;43.264;26.940;2022-08-07T03:22:23;98604.13;;;23.91;64.81
40872;BME280;26591;43.264;26.940;2022-08-07T03:24:49;98606.88;;;24.02;64.80
40872;BME280;26591;43.264;26.940;2022-08-07T03:27:15;98612.38;;;24.33;63.48
40872;BME280;26591;43.264;26.940;2022-08-07T03:29:47;98609.19;;;24.62;62.92
40872;BME280;26591;43.264;26.940;2022-08-07T03:32:15;98603.78;;;25.03;61.33
40872;BME280;26591;43.264;26.940;2022-08-07T03:34:45;98614.03;;;25.58;60.83
40872;BME280;26591;43.264;26.940;2022-08-07T03:37:13;98609.47;;;26.14;59.05
40872;BME280;26591;43.264;26.940;2022-08-07T03:39:41;98611.78;;;26.36;57.43
40872;BME280;26591;43.264;26.940;2022-08-07T03:42:07;98607.25;;;26.66;56.84
40872;BME280;26591;43.264;26.940;2022-08-07T03:44:35;98609.50;;;27.23;55.51
40872;BME280;26591;43.264;26.940;2022-08-07T03:47:02;98610.47;;;27.62;54.96
40872;BME280;26591;43.264;26.940;2022-08-07T03:49:28;98604.41;;;27.70;53.79
40872;BME280;26591;43.264;26.940;2022-08-07T03:51:56;98608.13;;;28.23;53.73
40872;BME280;26591;43.264;26.940;2022-08-07T03:54:23;98604.94;;;28.73;52.16
40872;BME280;26591;43.264;26.940;2022-08-07T03:56:49;98604.09;;;28.72;52.46
40872;BME280;26591;43.264;26.940;2022-08-07T03:59:16;98609.63;;;28.86;51.99
40872;BME280;26591;43.264;26.940;2022-08-07T04:01:43;98606.78;;;28.91;52.01
40872;BME280;26591;43.264;26.940;2022-08-07T04:04:10;98612.88;;;29.02;51.41
40872;BME280;26591;43.264;26.940;2022-08-07T04:06:37;98611.44;;;29.38;50.79
40872;BME280;26591;43.264;26.940;2022-08-07T04:09:06;98613.88;;;29.53;50.71
40872;BME280;26591;43.264;26.940;2022-08-07T04:11:32;98617.22;;;30.06;49.44
40872;BME280;26591;43.264;26.940;2022-08-07T04:14:01;98624.09;;;30.40;48.68
40872;BME280;26591;43.264;26.940;2022-08-07T04:16:27;98633.91;;;30.78;47.82
40872;BME280;26591;43.264;26.940;2022-08-07T04:18:53;98629.84;;;31.21;47.61
40872;BME280;26591;43.264;26.940;2022-08-07T04:21:19;98633.59;;;31.65;46.80
40872;BME280;26591;43.264;26.940;2022-08-07T04:23:45;98636.31;;;32.15;45.05
40872;BME280;26591;43.264;26.940;2022-08-07T04:26:11;98629.59;;;32.74;45.38
40872;BME280;26591;43.264;26.940;2022-08-07T04:28:37;98638.78;;;32.60;44.17
40872;BME280;26591;43.264;26.940;2022-08-07T04:31:04;98634.88;;;32.96;43.83
40872;BME280;26591;43.264;26.940;2022-08-07T04:33:30;98631.13;;;33.18;43.51
40872;BME280;26591;43.264;26.940;2022-08-07T04:35:56;98640.16;;;33.19;43.16
40872;BME280;26591;43.264;26.940;2022-08-07T04:38:24;98637.84;;;33.39;43.29
40872;BME280;26591;43.264;26.940;2022-08-07T04:40:50;98642.91;;;33.67;42.12
40872;BME280;26591;43.264;26.940;2022-08-07T04:43:18;98646.25;;;33.81;42.69
40872;BME280;26591;43.264;26.940;2022-08-07T04:46:06;98644.59;;;34.40;41.05
40872;BME280;26591;43.264;26.940;2022-08-07T04:59:30;98656.72;;;35.15;39.56
40872;BME280;26591;43.264;26.940;2022-08-07T05:02:23;98656.19;;;35.34;39.22
40872;BME280;26591;43.264;26.940;2022-08-07T05:07:41;98674.81;;;35.16;39.03
40872;BME280;26591;43.264;26.940;2022-08-07T05:10:16;98664.06;;;35.23;39.13
40872;BME280;26591;43.264;26.940;2022-08-07T05:12:51;98669.88;;;35.09;39.30
40872;BME280;26591;43.264;26.940;2022-08-07T05:15:39;98663.09;;;34.52;39.68
40872;BME280;26591;43.264;26.940;2022-08-07T05:18:10;98663.94;;;34.86;39.93
40872;BME280;26591;43.264;26.940;2022-08-07T05:20:40;98675.34;;;35.43;38.47
40872;BME280;26591;43.264;26.940;2022-08-07T05:23:13;98676.56;;;35.79;38.34
40872;BME280;26591;43.264;26.940;2022-08-07T05:25:41;98676.75;;;35.86;38.14
40872;BME280;26591;43.264;26.940;2022-08-07T05:28:08;98677.13;;;35.97;37.58
40872;BME280;26591;43.264;26.940;2022-08-07T05:30:35;98682.72;;;36.13;37.53
40872;BME280;26591;43.264;26.940;2022-08-07T05:33:02;98677.09;;;36.22;36.80
40872;BME280;26591;43.264;26.940;2022-08-07T05:35:33;98681.81;;;36.22;37.05
40872;BME280;26591;43.264;26.940;2022-08-07T05:37:59;98675.91;;;36.35;36.90
40872;BME280;26591;43.264;26.940;2022-08-07T05:40:26;98676.50;;;36.29;36.75
40872;BME280;26591;43.264;26.940;2022-08-07T05:42:52;98683.63;;;36.30;36.50
40872;BME280;26591;43.264;26.940;2022-08-07T05:45:19;98689.25;;;36.21;36.62
40872;BME280;26591;43.264;26.940;2022-08-07T05:47:46;98687.91;;;36.15;37.03
40872;BME280;26591;43.264;26.940;2022-08-07T05:50:11;98686.09;;;36.60;35.84
40872;BME280;26591;43.264;26.940;2022-08-07T05:52:37;98684.91;;;36.73;36.01
40872;BME280;26591;43.264;26.940;2022-08-07T05:55:03;98689.19;;;36.99;34.98
40872;BME280;26591;43.264;26.940;2022-08-07T05:57:29;98687.47;;;37.39;34.33
40872;BME280;26591;43.264;26.940;2022-08-07T05:59:57;98683.97;;;36.82;34.46
40872;BME280;26591;43.264;26.940;2022-08-07T06:02:26;98692.34;;;36.85;34.79
40872;BME280;26591;43.264;26.940;2022-08-07T06:04:56;98695.69;;;37.07;34.03
40872;BME280;26591;43.264;26.940;2022-08-07T06:07:21;98693.50;;;37.13;34.21
40872;BME280;26591;43.264;26.940;2022-08-07T06:09:48;98687.44;;;37.67;32.75
40872;BME280;26591;43.264;26.940;2022-08-07T06:12:14;98690.00;;;37.44;32.94
40872;BME280;26591;43.264;26.940;2022-08-07T06:14:41;98693.09;;;37.75;32.72
40872;BME280;26591;43.264;26.940;2022-08-07T06:17:07;98685.81;;;37.50;33.28
40872;BME280;26591;43.264;26.940;2022-08-07T06:19:34;98684.72;;;37.23;32.35
40872;BME280;26591;43.264;26.940;2022-08-07T06:22:00;98686.31;;;37.40;32.30
40872;BME280;26591;43.264;26.940;2022-08-07T06:24:26;98685.47;;;37.07;32.51
40872;BME280;26591;43.264;26.940;2022-08-07T06:26:51;98692.94;;;36.25;33.89
40872;BME280;26591;43.264;26.940;2022-08-07T06:29:17;98688.31;;;36.42;33.49
40872;BME280;26591;43.264;26.940;2022-08-07T06:31:43;98687.56;;;36.16;34.02
40872;BME280;26591;43.264;26.940;2022-08-07T06:34:08;98681.25;;;36.16;34.07
40872;BME280;26591;43.264;26.940;2022-08-07T06:36:34;98695.22;;;36.23;33.82
40872;BME280;26591;43.264;26.940;2022-08-07T06:38:59;98674.22;;;35.44;35.05
40872;BME280;26591;43.264;26.940;2022-08-07T06:41:32;98681.97;;;35.29;35.80
40872;BME280;26591;43.264;26.940;2022-08-07T06:44:00;98688.75;;;35.44;34.86
40872;BME280;26591;43.264;26.940;2022-08-07T06:46:28;98685.28;;;36.06;34.39
40872;BME280;26591;43.264;26.940;2022-08-07T06:48:54;98688.13;;;36.10;33.96
40872;BME280;26591;43.264;26.940;2022-08-07T06:51:23;98684.13;;;36.07;34.41
40872;BME280;26591;43.264;26.940;2022-08-07T06:53:51;98680.31;;;35.62;34.63
40872;BME280;26591;43.264;26.940;2022-08-07T06:56:19;98687.19;;;35.43;35.01
40872;BME280;26591;43.264;26.940;2022-08-07T06:59:11;98685.31;;;35.02;35.31
40872;BME280;26591;43.264;26.940;2022-08-07T07:01:38;98682.03;;;34.87;35.78
40872;BME280;26591;43.264;26.940;2022-08-07T07:04:06;98684.72;;;34.96;35.49
40872;BME280;26591;43.264;26.940;2022-08-07T07:06:32;98684.97;;;35.03;35.15
40872;BME280;26591;43.264;26.940;2022-08-07T07:09:27;98684.78;;;34.87;35.89
40872;BME280;26591;43.264;26.940;2022-08-07T07:14:26;98682.94;;;34.28;36.06
40872;BME280;26591;43.264;26.940;2022-08-07T07:16:55;98685.63;;;34.36;36.50
40872;BME280;26591;43.264;26.940;2022-08-07T07:19:31;98689.75;;;34.00;36.89
40872;BME280;26591;43.264;26.940;2022-08-07T07:21:58;98696.41;;;33.43;37.35
40872;BME280;26591;43.264;26.940;2022-08-07T07:24:24;98690.09;;;33.51;37.54
40872;BME280;26591;43.264;26.940;2022-08-07T07:26:52;98687.13;;;33.00;38.51
40872;BME280;26591;43.264;26.940;2022-08-07T07:29:22;98686.31;;;32.82;38.54
40872;BME280;26591;43.264;26.940;2022-08-07T07:31:51;98691.75;;;33.26;38.27
40872;BME280;26591;43.264;26.940;2022-08-07T07:34:26;98691.63;;;33.05;38.12
40872;BME280;26591;43.264;26.940;2022-08-07T07:36:53;98688.41;;;33.11;38.42
40872;BME280;26591;43.264;26.940;2022-08-07T07:39:20;98690.19;;;32.90;38.50
40872;BME280;26591;43.264;26.940;2022-08-07T07:41:48;98700.16;;;32.94;39.16
40872;BME280;26591;43.264;26.940;2022-08-07T07:44:15;98700.31;;;33.15;38.82
40872;BME280;26591;43.264;26.940;2022-08-07T07:46:43;98695.28;;;33.44;38.62
40872;BME280;26591;43.264;26.940;2022-08-07T07:49:12;98692.59;;;33.74;37.88
40872;BME280;26591;43.264;26.940;2022-08-07T07:51:38;98682.69;;;33.34;38.79
40872;BME280;26591;43.264;26.940;2022-08-07T07:54:05;98691.63;;;32.69;39.99
40872;BME280;26591;43.264;26.940;2022-08-07T07:56:32;98691.50;;;32.92;39.04
40872;BME280;26591;43.264;26.940;2022-08-07T07:59:03;98687.53;;;33.28;38.98
40872;BME280;26591;43.264;26.940;2022-08-07T08:01:30;98691.78;;;32.99;38.46
40872;BME280;26591;43.264;26.940;2022-08-07T08:03:59;98696.13;;;32.56;39.68
40872;BME280;26591;43.264;26.940;2022-08-07T08:06:26;98702.41;;;32.66;40.53
40872;BME280;26591;43.264;26.940;2022-08-07T08:08:53;98696.13;;;32.39;40.32
40872;BME280;26591;43.264;26.940;2022-08-07T08:11:19;98700.59;;;32.26;39.66
40872;BME280;26591;43.264;26.940;2022-08-07T08:13:47;98698.88;;;32.48;38.27
40872;BME280;26591;43.264;26.940;2022-08-07T08:16:17;98688.53;;;32.80;37.47
40872;BME280;26591;43.264;26.940;2022-08-07T08:18:45;98685.31;;;33.13;37.48
40872;BME280;26591;43.264;26.940;2022-08-07T08:21:14;98693.09;;;32.93;37.39
40872;BME280;26591;43.264;26.940;2022-08-07T08:24:01;98681.59;;;33.35;36.32
40872;BME280;26591;43.264;26.940;2022-08-07T08:26:48;98690.19;;;32.81;36.14
40872;BME280;26591;43.264;26.940;2022-08-07T08:29:51;98676.78;;;32.70;36.01
40872;BME280;26591;43.264;26.940;2022-08-07T08:32:20;98685.00;;;32.70;35.36
40872;BME280;26591;43.264;26.940;2022-08-07T08:34:50;98690.31;;;33.11;35.54
40872;BME280;26591;43.264;26.940;2022-08-07T08:37:18;98688.41;;;33.11;35.54
40872;BME280;26591;43.264;26.940;2022-08-07T08:39:45;98685.50;;;33.08;35.53
40872;BME280;26591;43.264;26.940;2022-08-07T08:42:41;98683.41;;;33.05;35.68
40872;BME280;26591;43.264;26.940;2022-08-07T08:45:18;98680.69;;;32.87;35.66
40872;BME280;26591;43.264;26.940;2022-08-07T08:48:17;98684.03;;;32.66;36.35
40872;BME280;26591;43.264;26.940;2022-08-07T08:50:49;98678.09;;;32.47;36.54
40872;BME280;26591;43.264;26.940;2022-08-07T08:56:06;98676.63;;;32.67;35.69
40872;BME280;26591;43.264;26.940;2022-08-07T08:58:44;98679.22;;;32.46;35.27
40872;BME280;26591;43.264;26.940;2022-08-07T09:01:55;98678.97;;;32.16;35.29
40872;BME280;26591;43.264;26.940;2022-08-07T09:15:30;98667.09;;;33.73;33.02
40872;BME280;26591;43.264;26.940;2022-08-07T09:21:02;98676.06;;;33.44;33.64
40872;BME280;26591;43.264;26.940;2022-08-07T09:23:40;98670.81;;;32.68;33.70
40872;BME280;26591;43.264;26.940;2022-08-07T09:37:42;98674.88;;;32.62;35.02
40872;BME280;26591;43.264;26.940;2022-08-07T09:43:21;98695.16;;;32.44;35.36
40872;BME280;26591;43.264;26.940;2022-08-07T09:46:10;98679.19;;;32.28;35.51
40872;BME280;26591;43.264;26.940;2022-08-07T09:54:14;98674.19;;;32.65;35.25
40872;BME280;26591;43.264;26.940;2022-08-07T09:59:40;98656.47;;;33.07;35.89
40872;BME280;26591;43.264;26.940;2022-08-07T10:11:59;98658.81;;;33.35;35.57
40872;BME280;26591;43.264;26.940;2022-08-07T10:16:41;98639.13;;;33.89;35.57
40872;BME280;26591;43.264;26.940;2022-08-07T10:19:37;98648.53;;;34.30;34.58
40872;BME280;26591;43.264;26.940;2022-08-07T10:30:51;98641.19;;;33.53;34.38
40872;BME280;26591;43.264;26.940;2022-08-07T10:44:05;98634.38;;;33.98;34.95
40872;BME280;26591;43.264;26.940;2022-08-07T10:49:35;98645.06;;;34.42;34.15
40872;BME280;26591;43.264;26.940;2022-08-07T10:52:08;98634.88;;;34.21;34.53
40872;BME280;26591;43.264;26.940;2022-08-07T10:54:55;98651.84;;;33.85;34.77
40872;BME280;26591;43.264;26.940;2022-08-07T10:57:42;98629.72;;;33.60;34.87
40872;BME280;26591;43.264;26.940;2022-08-07T11:00:12;98621.59;;;34.02;34.22
40872;BME280;26591;43.264;26.940;2022-08-07T11:03:06;98612.31;;;34.37;33.30
40872;BME280;26591;43.264;26.940;2022-08-07T11:05:48;98616.97;;;34.58;33.76
40872;BME280;26591;43.264;26.940;2022-08-07T11:08:41;98617.03;;;34.28;33.80
40872;BME280;26591;43.264;26.940;2022-08-07T11:16:36;98615.47;;;34.48;33.36
40872;BME280;26591;43.264;26.940;2022-08-07T11:19:35;98612.50;;;34.32;34.23
40872;BME280;26591;43.264;26.940;2022-08-07T11:22:14;98616.91;;;34.03;33.95
40872;BME280;26591;43.264;26.940;2022-08-07T11:24:52;98606.53;;;33.48;34.29
40872;BME280;26591;43.264;26.940;2022-08-07T11:27:29;98615.69;;;32.96;35.35
40872;BME280;26591;43.264;26.940;2022-08-07T11:30:05;98613.91;;;33.00;35.42
40872;BME280;26591;43.264;26.940;2022-08-07T11:35:25;98599.00;;;33.37;34.95
40872;BME280;26591;43.264;26.940;2022-08-07T11:38:13;98599.03;;;33.97;33.53
40872;BME280;26591;43.264;26.940;2022-08-07T11:40:57;98613.84;;;34.26;34.33
40872;BME280;26591;43.264;26.940;2022-08-07T11:43:28;98605.97;;;33.94;35.70
40872;BME280;26591;43.264;26.940;2022-08-07T11:49:22;98614.47;;;33.32;35.00
40872;BME280;26591;43.264;26.940;2022-08-07T11:57:21;98625.44;;;33.41;35.28
40872;BME280;26591;43.264;26.940;2022-08-07T12:00:05;98618.06;;;33.63;34.87
40872;BME280;26591;43.264;26.940;2022-08-07T12:08:22;98615.81;;;35.13;32.19
40872;BME280;26591;43.264;26.940;2022-08-07T12:13:27;98620.59;;;33.77;32.68
40872;BME280;26591;43.264;26.940;2022-08-07T12:15:58;98640.06;;;32.89;32.75
40872;BME280;26591;43.264;26.940;2022-08-07T12:24:20;98683.03;;;30.55;41.78
40872;BME280;26591;43.264;26.940;2022-08-07T12:26:57;98677.00;;;29.75;42.97
40872;BME280;26591;43.264;26.940;2022-08-07T12:29:37;98688.63;;;29.33;44.99
40872;BME280;26591;43.264;26.940;2022-08-07T12:32:49;98669.88;;;28.60;48.59
40872;BME280;26591;43.264;26.940;2022-08-07T12:35:16;98669.56;;;28.24;52.28
40872;BME280;26591;43.264;26.940;2022-08-07T12:37:47;98642.91;;;27.53;53.97
40872;BME280;26591;43.264;26.940;2022-08-07T12:40:18;98639.88;;;28.27;53.52
40872;BME280;26591;43.264;26.940;2022-08-07T12:42:44;98646.91;;;28.67;53.16
40872;BME280;26591;43.264;26.940;2022-08-07T12:45:15;98650.13;;;29.07;52.42
40872;BME280;26591;43.264;26.940;2022-08-07T12:53:03;98643.03;;;30.23;49.18
40872;BME280;26591;43.264;26.940;2022-08-07T12:55:45;98648.63;;;30.91;45.89
40872;BME280;26591;43.264;26.940;2022-08-07T12:58:16;98651.22;;;31.50;43.99
40872;BME280;26591;43.264;26.940;2022-08-07T13:14:45;98641.47;;;32.25;43.52
40872;BME280;26591;43.264;26.940;2022-08-07T13:17:37;98634.72;;;31.64;44.88
40872;BME280;26591;43.264;26.940;2022-08-07T13:20:14;98632.94;;;31.28;45.61
40872;BME280;26591;43.264;26.940;2022-08-07T13:22:49;98617.72;;;31.45;45.29
40872;BME280;26591;43.264;26.940;2022-08-07T13:25:28;98624.56;;;31.65;45.49
40872;BME280;26591;43.264;26.940;2022-08-07T13:28:03;98622.63;;;32.23;43.36
40872;BME280;26591;43.264;26.940;2022-08-07T13:30:30;98624.44;;;32.28;42.69
40872;BME280;26591;43.264;26.940;2022-08-07T13:33:10;98622.69;;;32.41;42.07
40872;BME280;26591;43.264;26.940;2022-08-07T13:35:45;98615.41;;;32.45;41.74
40872;BME280;26591;43.264;26.940;2022-08-07T13:38:33;98617.03;;;32.37;42.54
40872;BME280;26591;43.264;26.940;2022-08-07T13:41:26;98613.50;;;32.46;40.92
40872;BME280;26591;43.264;26.940;2022-08-07T13:43:59;98610.22;;;32.17;40.96
40872;BME280;26591;43.264;26.940;2022-08-07T13:46:30;98614.13;;;32.42;40.30
40872;BME280;26591;43.264;26.940;2022-08-07T13:48:59;98612.03;;;32.92;38.72
40872;BME280;26591;43.264;26.940;2022-08-07T13:51:29;98613.50;;;32.37;39.27
40872;BME280;26591;43.264;26.940;2022-08-07T13:53:59;98599.25;;;32.08;39.38
40872;BME280;26591;43.264;26.940;2022-08-07T13:56:27;98606.41;;;32.45;38.73
40872;BME280;26591;43.264;26.940;2022-08-07T13:58:54;98608.31;;;32.44;39.07
40872;BME280;26591;43.264;26.940;2022-08-07T14:01:32;98599.16;;;32.31;39.50
40872;BME280;26591;43.264;26.940;2022-08-07T14:04:06;98594.81;;;32.48;38.94
40872;BME280;26591;43.264;26.940;2022-08-07T14:06:34;98598.34;;;32.39;39.60
40872;BME280;26591;43.264;26.940;2022-08-07T14:09:02;98591.75;;;32.49;38.86
40872;BME280;26591;43.264;26.940;2022-08-07T14:11:29;98592.50;;;32.67;38.80
40872;BME280;26591;43.264;26.940;2022-08-07T14:14:03;98598.19;;;32.53;38.63
40872;BME280;26591;43.264;26.940;2022-08-07T14:16:40;98598.66;;;32.82;38.57
40872;BME280;26591;43.264;26.940;2022-08-07T14:19:16;98590.13;;;32.57;38.81
40872;BME280;26591;43.264;26.940;2022-08-07T14:21:44;98594.13;;;32.51;38.64
40872;BME280;26591;43.264;26.940;2022-08-07T14:24:34;98599.31;;;32.52;38.85
40872;BME280;26591;43.264;26.940;2022-08-07T14:27:05;98599.31;;;32.44;38.72
40872;BME280;26591;43.264;26.940;2022-08-07T14:29:40;98593.69;;;32.49;38.78
40872;BME280;26591;43.264;26.940;2022-08-07T14:32:08;98600.75;;;32.59;38.49
40872;BME280;26591;43.264;26.940;2022-08-07T14:34:39;98596.72;;;32.74;38.05
40872;BME280;26591;43.264;26.940;2022-08-07T14:37:09;98593.97;;;32.82;38.09
40872;BME280;26591;43.264;26.940;2022-08-07T14:39:37;98587.69;;;32.82;38.35
40872;BME280;26591;43.264;26.940;2022-08-07T14:42:05;98589.00;;;32.84;38.07
40872;BME280;26591;43.264;26.940;2022-08-07T14:44:32;98583.16;;;32.86;37.49
40872;BME280;26591;43.264;26.940;2022-08-07T14:46:59;98582.78;;;33.05;37.60
40872;BME280;26591;43.264;26.940;2022-08-07T14:49:33;98579.97;;;33.31;36.92
40872;BME280;26591;43.264;26.940;2022-08-07T14:51:59;98592.91;;;33.61;36.18
40872;BME280;26591;43.264;26.940;2022-08-07T14:54:31;98590.88;;;33.49;36.12
40872;BME280;26591;43.264;26.940;2022-08-07T14:56:59;98586.31;;;33.53;35.72
40872;BME280;26591;43.264;26.940;2022-08-07T14:59:26;98578.91;;;33.15;35.43
40872;BME280;26591;43.264;26.940;2022-08-07T15:01:55;98582.63;;;33.10;34.56
40872;BME280;26591;43.264;26.940;2022-08-07T15:04:23;98582.25;;;32.55;36.44
40872;BME280;26591;43.264;26.940;2022-08-07T15:06:49;98577.22;;;32.57;33.37
40872;BME280;26591;43.264;26.940;2022-08-07T15:09:17;98587.56;;;32.34;32.24
40872;BME280;26591;43.264;26.940;2022-08-07T15:12:00;98580.75;;;32.14;32.52
40872;BME280;26591;43.264;26.940;2022-08-07T15:14:30;98584.47;;;32.18;31.52
40872;BME280;26591;43.264;26.940;2022-08-07T15:17:13;98583.81;;;32.04;31.05
40872;BME280;26591;43.264;26.940;2022-08-07T15:19:49;98576.91;;;31.98;31.35
40872;BME280;26591;43.264;26.940;2022-08-07T15:22:16;98571.59;;;32.19;30.80
40872;BME280;26591;43.264;26.940;2022-08-07T15:24:46;98593.34;;;32.33;31.37
40872;BME280;26591;43.264;26.940;2022-08-07T15:27:19;98596.53;;;32.17;32.20
40872;BME280;26591;43.264;26.940;2022-08-07T15:29:52;98593.59;;;31.87;31.71